createdAt,value
2023-03-07T00:00:08.547Z,99433.91
2023-03-07T00:03:16.760Z,99437.69
2023-03-07T00:06:20.044Z,99449.44
2023-03-07T00:09:23.398Z,99452.22
2023-03-07T00:12:26.882Z,99452.13
2023-03-07T00:15:30.686Z,99445.16
2023-03-07T00:18:34.091Z,99446.28
2023-03-07T00:21:37.458Z,99445.94
2023-03-07T00:24:40.484Z,99442.56
2023-03-07T00:27:43.571Z,99444.88
2023-03-07T00:30:46.673Z,99437.66
2023-03-07T00:33:49.742Z,99451.06
2023-03-07T00:36:53.212Z,99460.03
2023-03-07T00:39:56.980Z,99453.97
2023-03-07T00:43:00.021Z,99465.56
2023-03-07T00:46:04.174Z,99461.28
2023-03-07T00:49:07.218Z,99462.19
2023-03-07T00:52:10.315Z,99455.19
2023-03-07T00:55:13.244Z,99454.06
2023-03-07T00:58:16.530Z,99451.81
2023-03-07T01:01:23.617Z,99468.75
2023-03-07T01:04:26.963Z,99457.63
2023-03-07T01:07:30.059Z,99449.09
2023-03-07T01:10:33.859Z,99439.44
2023-03-07T01:13:37.569Z,99439.53
2023-03-07T01:16:40.705Z,99434.13
2023-03-07T01:19:43.844Z,99426.75
2023-03-07T01:22:47.296Z,99419.06
2023-03-07T01:25:50.265Z,99407.47
2023-03-07T01:28:56.508Z,99403.69
2023-03-07T01:32:00.260Z,99397.97
2023-03-07T01:35:03.768Z,99403.59
2023-03-07T01:38:07.130Z,99405.56
2023-03-07T01:41:12.637Z,99415.56
2023-03-07T01:44:22.889Z,99420.56
2023-03-07T01:47:25.997Z,99412.16
2023-03-07T01:50:30.335Z,99412.00
2023-03-07T01:53:33.713Z,99406.66
2023-03-07T01:56:39.018Z,99403.59
2023-03-07T01:59:46.833Z,99395.09
2023-03-07T02:03:00.269Z,99382.03
2023-03-07T02:06:09.865Z,99381.72
2023-03-07T02:09:18.861Z,99382.13
2023-03-07T02:12:23.227Z,99392.13
2023-03-07T02:15:27.088Z,99397.06
2023-03-07T02:18:35.557Z,99401.59
2023-03-07T02:22:00.020Z,99396.00
2023-03-07T02:25:06.211Z,99402.50
2023-03-07T02:28:14.045Z,99404.00
2023-03-07T02:31:18.869Z,99403.19
2023-03-07T02:34:21.971Z,99391.41
2023-03-07T02:37:33.180Z,99398.31
2023-03-07T02:40:37.132Z,99389.53
2023-03-07T02:43:40.454Z,99389.53
2023-03-07T02:46:44.955Z,99388.88
2023-03-07T02:49:48.606Z,99384.28
2023-03-07T02:52:51.713Z,99379.34
2023-03-07T02:55:54.781Z,99370.00
2023-03-07T02:58:58.011Z,99384.59
2023-03-07T03:02:01.200Z,99376.56
2023-03-07T03:05:04.916Z,99377.84
2023-03-07T03:08:08.107Z,99376.50
2023-03-07T03:11:11.446Z,99378.81
2023-03-07T03:14:14.669Z,99374.25
2023-03-07T03:17:17.914Z,99373.88
2023-03-07T03:20:20.913Z,99373.75
2023-03-07T03:23:24.236Z,99376.84
2023-03-07T03:26:30.096Z,99380.75
2023-03-07T03:29:33.629Z,99377.00
2023-03-07T03:32:40.325Z,99370.78
2023-03-07T03:35:45.500Z,99377.78
2023-03-07T03:38:48.685Z,99377.06
2023-03-07T03:41:51.835Z,99386.66
2023-03-07T03:44:57.836Z,99396.94
2023-03-07T03:48:00.851Z,99394.31
2023-03-07T03:51:05.838Z,99385.13
2023-03-07T03:54:08.941Z,99395.44
2023-03-07T03:57:16.098Z,99394.25
2023-03-07T04:00:21.199Z,99394.31
2023-03-07T04:03:24.980Z,99393.53
2023-03-07T04:06:31.071Z,99395.09
2023-03-07T04:09:34.779Z,99390.91
2023-03-07T04:12:37.958Z,99392.75
2023-03-07T04:15:42.137Z,99403.09
2023-03-07T04:18:46.194Z,99394.31
2023-03-07T04:21:49.273Z,99399.03
2023-03-07T04:24:53.177Z,99399.00
2023-03-07T04:27:56.648Z,99395.22
2023-03-07T04:30:59.795Z,99397.19
2023-03-07T04:34:02.942Z,99397.16
2023-03-07T04:37:06.732Z,99394.13
2023-03-07T04:40:10.606Z,99387.97
2023-03-07T04:43:13.965Z,99383.34
2023-03-07T04:46:18.202Z,99385.34
2023-03-07T04:49:21.671Z,99389.63
2023-03-07T04:52:24.971Z,99383.84
2023-03-07T04:55:30.483Z,99387.63
2023-03-07T04:58:34.543Z,99386.47
2023-03-07T05:01:38.132Z,99386.13
2023-03-07T05:04:41.631Z,99396.91
2023-03-07T05:07:44.912Z,99397.28
2023-03-07T05:10:49.769Z,99390.81
2023-03-07T05:13:53.017Z,99395.41
2023-03-07T05:16:58.344Z,99399.59
2023-03-07T05:20:01.372Z,99392.25
2023-03-07T05:23:05.023Z,99392.38
2023-03-07T05:26:08.343Z,99398.16
2023-03-07T05:29:11.743Z,99399.34
2023-03-07T05:32:15.747Z,99400.84
2023-03-07T05:35:20.940Z,99398.50
2023-03-07T05:38:24.327Z,99399.69
2023-03-07T05:41:27.530Z,99404.59
2023-03-07T05:44:32.571Z,99406.16
2023-03-07T05:47:38.980Z,99409.94
2023-03-07T05:50:44.585Z,99421.09
2023-03-07T05:53:48.021Z,99419.06
2023-03-07T05:56:51.596Z,99415.66
2023-03-07T05:59:55.285Z,99417.94
2023-03-07T06:02:58.580Z,99428.31
2023-03-07T06:06:01.868Z,99420.16
2023-03-07T06:09:05.870Z,99420.94
2023-03-07T06:12:11.028Z,99430.84
2023-03-07T06:15:14.034Z,99428.97
2023-03-07T06:18:17.995Z,99434.66
2023-03-07T06:21:21.365Z,99441.22
2023-03-07T06:24:24.610Z,99442.22
2023-03-07T06:27:27.728Z,99441.00
2023-03-07T06:30:31.231Z,99442.09
2023-03-07T06:33:35.003Z,99448.28
2023-03-07T06:36:40.295Z,99444.31
2023-03-07T06:39:43.755Z,99453.13
2023-03-07T06:42:47.882Z,99451.97
2023-03-07T06:45:52.059Z,99449.69
2023-03-07T06:48:56.784Z,99446.47
2023-03-07T06:52:01.116Z,99444.75
2023-03-07T06:55:05.708Z,99460.03
2023-03-07T06:58:10.599Z,99452.31
2023-03-07T07:01:23.497Z,99461.91
2023-03-07T07:04:30.214Z,99460.22
2023-03-07T07:07:33.838Z,99445.78
2023-03-07T07:10:38.886Z,99448.81
2023-03-07T07:13:43.805Z,99452.94
2023-03-07T07:16:49.078Z,99455.13
2023-03-07T07:19:53.016Z,99448.56
2023-03-07T07:22:57.295Z,99448.06
2023-03-07T07:26:04.505Z,99457.94
2023-03-07T07:29:09.585Z,99455.47
2023-03-07T07:32:14.064Z,99457.47
2023-03-07T07:35:18.151Z,99458.16
2023-03-07T07:38:24.334Z,99458.34
2023-03-07T07:41:27.833Z,99464.66
2023-03-07T07:44:32.776Z,99463.38
2023-03-07T07:47:40.393Z,99464.53
2023-03-07T07:50:44.042Z,99467.72
2023-03-07T07:53:49.897Z,99460.50
2023-03-07T07:56:55.090Z,99465.81
2023-03-07T07:59:58.745Z,99462.50
2023-03-07T08:03:02.465Z,99463.66
2023-03-07T08:06:06.097Z,99464.00
2023-03-07T08:09:09.595Z,99459.69
2023-03-07T08:12:13.623Z,99463.88
2023-03-07T08:15:17.380Z,99460.75
2023-03-07T08:18:21.269Z,99465.34
2023-03-07T08:21:26.330Z,99461.81
2023-03-07T08:24:40.179Z,99457.88
2023-03-07T08:27:45.711Z,99461.41
2023-03-07T08:30:49.151Z,99470.47
2023-03-07T08:33:52.846Z,99467.44
2023-03-07T08:36:56.285Z,99472.25
2023-03-07T08:39:59.688Z,99461.88
2023-03-07T08:43:03.276Z,99479.56
2023-03-07T08:46:07.286Z,99486.47
2023-03-07T08:49:12.188Z,99488.28
2023-03-07T08:52:15.528Z,99486.06
2023-03-07T08:55:19.079Z,99488.53
2023-03-07T08:58:24.071Z,99500.09
2023-03-07T09:01:28.641Z,99500.41
2023-03-07T09:04:32.514Z,99498.09
2023-03-07T09:07:36.265Z,99502.28
2023-03-07T09:10:40.132Z,99508.09
2023-03-07T09:13:52.004Z,99498.38
2023-03-07T09:16:56.438Z,99507.63
2023-03-07T09:20:00.557Z,99509.19
2023-03-07T09:23:04.841Z,99507.28
2023-03-07T09:26:08.280Z,99508.94
2023-03-07T09:29:12.813Z,99502.44
2023-03-07T09:32:16.461Z,99504.56
2023-03-07T09:35:21.799Z,99497.69
2023-03-07T09:38:29.218Z,99507.38
2023-03-07T09:41:57.987Z,99510.88
2023-03-07T09:45:32.634Z,99502.34
2023-03-07T09:49:03.068Z,99501.88
2023-03-07T09:52:17.063Z,99506.34
2023-03-07T09:55:22.422Z,99501.41
2023-03-07T09:58:28.500Z,99508.16
2023-03-07T10:01:36.362Z,99506.97
2023-03-07T10:04:59.273Z,99511.81
2023-03-07T10:08:26.308Z,99508.22
2023-03-07T10:11:49.217Z,99516.53
2023-03-07T10:15:17.283Z,99511.25
2023-03-07T10:18:34.381Z,99518.16
2023-03-07T10:21:38.772Z,99517.25
2023-03-07T10:24:54.892Z,99519.44
2023-03-07T10:28:24.749Z,99517.53
2023-03-07T10:31:39.882Z,99518.56
2023-03-07T10:34:44.492Z,99511.75
2023-03-07T10:37:52.551Z,99504.47
2023-03-07T10:41:12.013Z,99512.69
2023-03-07T10:44:19.886Z,99500.63
2023-03-07T10:47:26.277Z,99507.78
2023-03-07T10:50:42.355Z,99491.19
2023-03-07T10:53:48.050Z,99495.38
2023-03-07T10:57:16.395Z,99479.09
2023-03-07T11:00:20.600Z,99482.16
2023-03-07T11:03:51.501Z,99488.16
2023-03-07T11:07:00.948Z,99480.53
2023-03-07T11:10:39.920Z,99467.31
2023-03-07T11:14:03.781Z,99470.59
2023-03-07T11:17:22.340Z,99464.25
2023-03-07T11:20:45.594Z,99473.31
2023-03-07T11:24:05.997Z,99455.09
2023-03-07T11:27:22.207Z,99445.72
2023-03-07T11:30:30.501Z,99446.44
2023-03-07T11:34:01.980Z,99433.19
2023-03-07T11:37:27.817Z,99444.56
2023-03-07T11:41:02.235Z,99442.81
2023-03-07T11:44:32.593Z,99441.72
2023-03-07T11:47:52.780Z,99429.13
2023-03-07T11:51:00.298Z,99423.69
2023-03-07T11:54:15.730Z,99425.00
2023-03-07T11:57:52.465Z,99404.97
2023-03-07T12:01:34.839Z,99409.22
2023-03-07T12:04:47.099Z,99402.66
2023-03-07T12:07:56.825Z,99396.13
2023-03-07T12:11:27.105Z,99391.81
2023-03-07T12:14:59.604Z,99399.53
2023-03-07T12:18:45.091Z,99388.63
2023-03-07T12:22:29.631Z,99373.34
2023-03-07T12:25:42.568Z,99371.09
2023-03-07T12:28:52.450Z,99378.31
2023-03-07T12:32:02.979Z,99373.88
2023-03-07T12:35:23.958Z,99368.03
2023-03-07T12:38:59.977Z,99363.41
2023-03-07T12:42:18.668Z,99369.28
2023-03-07T12:45:28.725Z,99367.06
2023-03-07T12:48:44.123Z,99364.88
2023-03-07T12:51:57.478Z,99361.06
2023-03-07T12:55:09.471Z,99363.41
2023-03-07T12:58:22.798Z,99359.44
2023-03-07T13:01:32.357Z,99365.25
2023-03-07T13:04:38.462Z,99357.91
2023-03-07T13:07:45.074Z,99349.88
2023-03-07T13:10:48.515Z,99347.16
2023-03-07T13:13:55.820Z,99344.81
2023-03-07T13:17:00.128Z,99342.59
2023-03-07T13:20:16.064Z,99347.44
2023-03-07T13:23:26.334Z,99341.63
2023-03-07T13:26:30.233Z,99346.41
2023-03-07T13:30:07.981Z,99342.88
2023-03-07T13:33:28.442Z,99342.63
2023-03-07T13:36:39.382Z,99345.72
2023-03-07T13:40:00.196Z,99335.59
2023-03-07T13:43:20.126Z,99338.75
2023-03-07T13:46:29.436Z,99338.19
2023-03-07T13:49:41.504Z,99330.41
2023-03-07T13:52:46.201Z,99331.78
2023-03-07T13:55:57.028Z,99328.16
2023-03-07T13:59:11.749Z,99319.25
2023-03-07T14:02:17.966Z,99315.38
2023-03-07T14:05:22.565Z,99313.34
2023-03-07T14:08:30.519Z,99306.50
2023-03-07T14:11:47.191Z,99303.28
2023-03-07T14:15:21.866Z,99297.88
2023-03-07T14:18:41.002Z,99291.66
2023-03-07T14:21:54.812Z,99278.25
2023-03-07T14:25:05.851Z,99282.38
2023-03-07T14:28:29.656Z,99270.75
2023-03-07T14:31:41.612Z,99264.72
2023-03-07T14:34:49.330Z,99263.94
2023-03-07T14:37:52.408Z,99260.56
2023-03-07T14:44:56.089Z,99246.91
2023-03-07T14:48:40.877Z,99241.50
2023-03-07T14:51:45.042Z,99252.91
2023-03-07T14:54:53.266Z,99248.56
2023-03-07T14:57:56.519Z,99242.19
2023-03-07T15:01:14.536Z,99230.47
2023-03-07T15:04:33.417Z,99229.84
2023-03-07T15:07:37.299Z,99218.84
2023-03-07T15:10:44.194Z,99215.66
2023-03-07T15:13:54.112Z,99219.59
2023-03-07T15:17:03.893Z,99225.28
2023-03-07T15:20:19.345Z,99208.97
2023-03-07T15:23:24.829Z,99202.78
2023-03-07T15:26:28.965Z,99198.16
2023-03-07T15:29:33.515Z,99206.47
2023-03-07T15:32:42.565Z,99195.03
2023-03-07T15:36:05.539Z,99194.34
2023-03-07T15:39:34.796Z,99185.22
2023-03-07T15:42:56.377Z,99180.47
2023-03-07T15:46:06.750Z,99178.25
2023-03-07T15:49:46.136Z,99178.53
2023-03-07T15:52:53.800Z,99178.75
2023-03-07T15:56:00.766Z,99171.41
2023-03-07T15:59:21.924Z,99166.56
2023-03-07T16:02:46.761Z,99156.66
2023-03-07T16:05:49.926Z,99160.56
2023-03-07T16:08:53.474Z,99160.75
2023-03-07T16:11:56.540Z,99151.31
2023-03-07T16:15:02.559Z,99151.06
2023-03-07T16:18:06.061Z,99141.63
2023-03-07T16:21:19.501Z,99130.69
2023-03-07T16:24:22.770Z,99132.69
2023-03-07T16:27:25.880Z,99143.06
2023-03-07T16:30:32.050Z,99138.28
2023-03-07T16:33:35.265Z,99133.75
2023-03-07T16:36:38.368Z,99123.38
2023-03-07T16:39:41.418Z,99128.84
2023-03-07T16:42:47.548Z,99125.84
2023-03-07T16:45:51.299Z,99129.94
2023-03-07T16:48:54.848Z,99126.88
2023-03-07T16:52:05.504Z,99136.00
2023-03-07T16:55:14.390Z,99128.69
2023-03-07T16:58:27.702Z,99129.09
2023-03-07T17:01:31.065Z,99134.09
2023-03-07T17:04:34.388Z,99127.44
2023-03-07T17:07:37.454Z,99121.22
2023-03-07T17:10:42.563Z,99129.94
2023-03-07T17:13:48.871Z,99120.03
2023-03-07T17:16:52.634Z,99126.47
2023-03-07T17:19:56.205Z,99124.94
2023-03-07T17:22:59.778Z,99122.25
2023-03-07T17:26:03.114Z,99135.47
2023-03-07T17:29:12.172Z,99127.03
2023-03-07T17:32:15.871Z,99130.06
2023-03-07T17:35:19.284Z,99122.44
2023-03-07T17:38:22.438Z,99120.91
2023-03-07T17:41:25.585Z,99125.16
2023-03-07T17:44:29.824Z,99122.09
2023-03-07T17:47:33.692Z,99123.81
2023-03-07T17:50:37.287Z,99117.09
2023-03-07T17:53:40.432Z,99112.44
2023-03-07T17:56:44.284Z,99115.66
2023-03-07T17:59:47.813Z,99108.94
2023-03-07T18:02:51.316Z,99112.22
2023-03-07T18:05:54.925Z,99102.38
2023-03-07T18:08:58.582Z,99107.06
2023-03-07T18:12:01.993Z,99097.16
2023-03-07T18:15:15.838Z,99094.84
2023-03-07T18:18:19.120Z,99098.34
2023-03-07T18:21:23.529Z,99101.19
2023-03-07T18:24:30.149Z,99102.75
2023-03-07T18:27:33.680Z,99092.84
2023-03-07T18:30:36.605Z,99085.97
2023-03-07T18:33:40.644Z,99090.28
2023-03-07T18:36:44.144Z,99095.31
2023-03-07T18:39:47.132Z,99094.44
2023-03-07T18:42:52.770Z,99093.84
2023-03-07T18:45:55.974Z,99090.59
2023-03-07T18:49:01.041Z,99088.41
2023-03-07T18:52:04.707Z,99091.22
2023-03-07T18:55:08.502Z,99084.75
2023-03-07T18:58:11.825Z,99076.75
2023-03-07T19:01:18.118Z,99078.50
2023-03-07T19:04:22.972Z,99080.81
2023-03-07T19:07:28.087Z,99086.69
2023-03-07T19:10:31.732Z,99079.41
2023-03-07T19:13:35.935Z,99075.44
2023-03-07T19:16:39.221Z,99083.34
2023-03-07T19:19:43.008Z,99094.19
2023-03-07T19:22:46.745Z,99081.22
2023-03-07T19:25:50.777Z,99086.63
2023-03-07T19:28:55.306Z,99074.53
2023-03-07T19:31:58.409Z,99080.31
2023-03-07T19:35:01.606Z,99074.50
2023-03-07T19:38:05.405Z,99065.63
2023-03-07T19:41:13.426Z,99059.53
2023-03-07T19:44:17.720Z,99056.88
2023-03-07T19:47:20.803Z,99060.78
2023-03-07T19:50:24.534Z,99055.59
2023-03-07T19:53:28.175Z,99059.47
2023-03-07T19:56:32.424Z,99046.47
2023-03-07T19:59:35.880Z,99044.91
2023-03-07T20:02:40.763Z,99052.00
2023-03-07T20:05:45.287Z,99045.06
2023-03-07T20:08:51.113Z,99047.47
2023-03-07T20:11:57.450Z,99049.09
2023-03-07T20:15:00.658Z,99061.59
2023-03-07T20:18:05.999Z,99075.03
2023-03-07T20:21:12.467Z,99068.41
2023-03-07T20:24:18.832Z,99075.63
2023-03-07T20:27:23.774Z,99053.13
2023-03-07T20:30:27.242Z,99062.78
2023-03-07T20:33:30.668Z,99066.81
2023-03-07T20:36:35.811Z,99067.22
2023-03-07T20:39:40.851Z,99064.47
2023-03-07T20:42:45.899Z,99062.19
2023-03-07T20:45:49.233Z,99065.69
2023-03-07T20:48:56.101Z,99061.91
2023-03-07T20:51:59.366Z,99058.16
2023-03-07T20:55:02.618Z,99062.72
2023-03-07T20:58:08.197Z,99067.38
2023-03-07T21:01:12.319Z,99065.19
2023-03-07T21:04:17.839Z,99073.28
2023-03-07T21:07:20.836Z,99071.75
2023-03-07T21:10:25.092Z,99065.19
2023-03-07T21:13:29.843Z,99064.78
2023-03-07T21:16:33.112Z,99053.25
2023-03-07T21:19:36.893Z,99053.03
2023-03-07T21:22:44.645Z,99056.03
2023-03-07T21:25:47.788Z,99047.59
2023-03-07T21:28:51.646Z,99048.31
2023-03-07T21:31:55.834Z,99058.25
2023-03-07T21:34:58.859Z,99066.00
2023-03-07T21:38:01.817Z,99061.75
2023-03-07T21:41:05.857Z,99049.00
2023-03-07T21:44:10.213Z,99050.50
2023-03-07T21:47:13.690Z,99058.13
2023-03-07T21:50:17.400Z,99045.59
2023-03-07T21:53:20.778Z,99067.41
2023-03-07T21:56:24.119Z,99056.75
2023-03-07T21:59:28.434Z,99061.81
2023-03-07T22:02:32.261Z,99058.72
2023-03-07T22:05:38.349Z,99064.91
2023-03-07T22:08:41.775Z,99055.72
2023-03-07T22:11:45.250Z,99055.25
2023-03-07T22:14:48.384Z,99048.75
2023-03-07T22:17:51.803Z,99051.47
2023-03-07T22:20:55.381Z,99047.25
2023-03-07T22:24:00.664Z,99051.88
2023-03-07T22:27:04.057Z,99055.75
2023-03-07T22:30:08.096Z,99057.00
2023-03-07T22:33:11.507Z,99040.16
2023-03-07T22:36:16.251Z,99044.03
2023-03-07T22:39:19.506Z,99038.25
2023-03-07T22:42:22.457Z,99025.25
2023-03-07T22:45:25.489Z,99029.81
2023-03-07T22:48:29.138Z,99035.94
2023-03-07T22:51:32.039Z,99033.22
2023-03-07T22:54:39.387Z,99032.50
2023-03-07T22:57:42.544Z,99034.41
2023-03-07T23:00:45.662Z,99035.91
2023-03-07T23:03:51.558Z,99039.00
2023-03-07T23:06:54.828Z,99037.97
2023-03-07T23:09:58.060Z,99040.63
2023-03-07T23:13:01.390Z,99034.09
2023-03-07T23:16:10.656Z,99030.63
2023-03-07T23:19:14.373Z,99034.50
2023-03-07T23:22:17.497Z,99035.34
2023-03-07T23:25:21.342Z,99033.78
2023-03-07T23:28:24.777Z,99041.50
2023-03-07T23:31:31.877Z,99044.56
2023-03-07T23:34:35.855Z,99052.28
2023-03-07T23:37:39.256Z,99041.19
2023-03-07T23:40:43.079Z,99040.47
2023-03-07T23:43:46.483Z,99047.34
2023-03-07T23:46:50.161Z,99043.94
2023-03-07T23:49:53.172Z,99038.22
2023-03-07T23:52:56.531Z,99055.13
2023-03-07T23:55:59.553Z,99047.47
2023-03-07T23:59:02.903Z,99049.78
